createdAt,value
2018-04-27T00:00:42.983Z,1009.93
2018-04-27T00:01:42.972Z,1009.95
2018-04-27T00:02:42.958Z,1009.93
2018-04-27T00:03:42.939Z,1009.94
2018-04-27T00:04:42.915Z,1009.96
2018-04-27T00:05:42.898Z,1009.91
2018-04-27T00:06:42.877Z,1009.87
2018-04-27T00:07:42.863Z,1009.93
2018-04-27T00:08:42.846Z,1009.91
2018-04-27T00:09:42.826Z,1009.88
2018-04-27T00:10:42.808Z,1009.88
2018-04-27T00:11:42.803Z,1009.85
2018-04-27T00:12:42.784Z,1009.83
2018-04-27T00:13:42.759Z,1009.84
2018-04-27T00:14:42.740Z,1009.84
2018-04-27T00:15:42.723Z,1009.78
2018-04-27T00:16:42.705Z,1009.80
2018-04-27T00:17:42.688Z,1009.76
2018-04-27T00:18:42.675Z,1009.75
2018-04-27T00:19:42.656Z,1009.77
2018-04-27T00:20:42.644Z,1009.74
2018-04-27T00:21:42.619Z,1009.74
2018-04-27T00:22:42.597Z,1009.71
2018-04-27T00:23:42.578Z,1009.69
2018-04-27T00:24:42.570Z,1009.71
2018-04-27T00:25:42.546Z,1009.71
2018-04-27T00:26:42.527Z,1009.73
2018-04-27T00:27:42.512Z,1009.73
2018-04-27T00:28:42.493Z,1009.75
2018-04-27T00:29:42.477Z,1009.75
2018-04-27T00:30:42.458Z,1009.73
2018-04-27T00:31:42.447Z,1009.74
2018-04-27T00:32:42.431Z,1009.73
2018-04-27T00:33:42.416Z,1009.74
2018-04-27T00:34:42.387Z,1009.74
2018-04-27T00:35:42.368Z,1009.68
2018-04-27T00:36:42.562Z,1009.71
2018-04-27T00:37:42.347Z,1009.68
2018-04-27T00:38:42.318Z,1009.66
2018-04-27T00:39:42.299Z,1009.64
2018-04-27T00:40:42.292Z,1009.64
2018-04-27T00:41:42.265Z,1009.62
2018-04-27T00:42:42.248Z,1009.64
2018-04-27T00:43:42.228Z,1009.58
2018-04-27T00:44:42.210Z,1009.59
2018-04-27T00:45:42.197Z,1009.59
2018-04-27T00:46:42.178Z,1009.57
2018-04-27T00:47:42.159Z,1009.56
2018-04-27T00:48:42.146Z,1009.57
2018-04-27T00:49:42.127Z,1009.53
2018-04-27T00:50:42.103Z,1009.53
2018-04-27T00:51:42.090Z,1009.54
2018-04-27T00:52:42.068Z,1009.50
2018-04-27T00:53:42.057Z,1009.54
2018-04-27T00:54:42.036Z,1009.56
2018-04-27T00:55:42.016Z,1009.53
2018-04-27T00:56:41.997Z,1009.53
2018-04-27T00:57:41.976Z,1009.55
2018-04-27T00:58:41.965Z,1009.50
2018-04-27T00:59:41.943Z,1009.51
2018-04-27T01:00:41.928Z,1009.57
2018-04-27T01:01:41.908Z,1009.52
2018-04-27T01:02:41.892Z,1009.56
2018-04-27T01:03:41.880Z,1009.54
2018-04-27T01:04:41.858Z,1009.52
2018-04-27T01:05:41.837Z,1009.52
2018-04-27T01:06:41.817Z,1009.48
2018-04-27T01:07:41.803Z,1009.46
2018-04-27T01:08:41.783Z,1009.43
2018-04-27T01:09:41.768Z,1009.46
2018-04-27T01:10:41.749Z,1009.47
2018-04-27T01:11:41.734Z,1009.40
2018-04-27T01:12:41.719Z,1009.43
2018-04-27T01:13:41.696Z,1009.39
2018-04-27T01:14:41.681Z,1009.38
2018-04-27T01:15:41.658Z,1009.40
2018-04-27T01:16:41.643Z,1009.37
2018-04-27T01:17:41.629Z,1009.36
2018-04-27T01:18:41.608Z,1009.33
2018-04-27T01:19:41.588Z,1009.31
2018-04-27T01:20:41.569Z,1009.34
2018-04-27T01:21:41.555Z,1009.35
2018-04-27T01:22:41.537Z,1009.33
2018-04-27T01:23:41.519Z,1009.31
2018-04-27T01:24:41.496Z,1009.32
2018-04-27T01:25:41.483Z,1009.28
2018-04-27T01:26:41.460Z,1009.28
2018-04-27T01:27:41.446Z,1009.26
2018-04-27T01:28:41.425Z,1009.26
2018-04-27T01:29:41.407Z,1009.21
2018-04-27T01:30:41.388Z,1009.19
2018-04-27T01:31:41.372Z,1009.18
2018-04-27T01:32:41.354Z,1009.20
2018-04-27T01:33:41.338Z,1009.24
2018-04-27T01:35:41.299Z,1009.23
2018-04-27T01:36:41.286Z,1009.23
2018-04-27T01:37:41.265Z,1009.24
2018-04-27T01:38:41.245Z,1009.25
2018-04-27T01:39:41.234Z,1009.24
2018-04-27T01:40:41.209Z,1009.23
2018-04-27T01:41:41.191Z,1009.20
2018-04-27T01:42:41.184Z,1009.18
2018-04-27T01:43:41.152Z,1009.18
2018-04-27T01:44:41.137Z,1009.15
2018-04-27T01:45:41.127Z,1009.17
2018-04-27T01:46:41.100Z,1009.16
2018-04-27T01:47:41.090Z,1009.15
2018-04-27T01:48:41.066Z,1009.12
2018-04-27T01:49:41.051Z,1009.09
2018-04-27T01:50:41.030Z,1009.09
2018-04-27T01:51:41.012Z,1009.05
2018-04-27T01:52:40.994Z,1009.06
2018-04-27T01:53:40.981Z,1009.02
2018-04-27T01:54:40.959Z,1009.03
2018-04-27T01:55:40.947Z,1009.07
2018-04-27T01:56:40.920Z,1009.07
2018-04-27T01:57:40.907Z,1009.07
2018-04-27T01:58:40.883Z,1009.10
2018-04-27T01:59:40.915Z,1009.06
2018-04-27T02:00:40.854Z,1009.09
2018-04-27T02:01:40.828Z,1009.10
2018-04-27T02:02:40.812Z,1009.10
2018-04-27T02:03:40.797Z,1009.10
2018-04-27T02:04:40.780Z,1009.10
2018-04-27T02:05:40.754Z,1009.10
2018-04-27T02:06:40.738Z,1009.12
2018-04-27T02:07:40.718Z,1009.10
2018-04-27T02:08:40.704Z,1009.13
2018-04-27T02:09:40.687Z,1009.11
2018-04-27T02:10:40.664Z,1009.08
2018-04-27T02:11:40.650Z,1009.07
2018-04-27T02:12:40.632Z,1009.03
2018-04-27T02:13:40.618Z,1009.03
2018-04-27T02:14:40.597Z,1009.05
2018-04-27T02:15:40.575Z,1009.05
2018-04-27T02:16:40.555Z,1009.06
2018-04-27T02:17:40.573Z,1009.09
2018-04-27T02:18:40.519Z,1009.04
2018-04-27T02:19:40.507Z,1009.02
2018-04-27T02:20:40.480Z,1008.99
2018-04-27T02:21:40.470Z,1009.00
2018-04-27T02:22:40.455Z,1009.00
2018-04-27T02:23:40.432Z,1008.99
2018-04-27T02:24:40.408Z,1008.99
2018-04-27T02:25:40.388Z,1009.02
2018-04-27T02:26:40.369Z,1008.99
2018-04-27T02:27:40.355Z,1008.95
2018-04-27T02:28:40.334Z,1008.95
2018-04-27T02:29:40.328Z,1008.94
2018-04-27T02:30:40.303Z,1008.90
2018-04-27T02:31:40.278Z,1008.94
2018-04-27T02:32:40.260Z,1008.91
2018-04-27T02:33:40.243Z,1008.87
2018-04-27T02:34:40.230Z,1008.84
2018-04-27T02:35:40.212Z,1008.85
2018-04-27T02:36:40.188Z,1008.80
2018-04-27T02:37:40.167Z,1008.85
2018-04-27T02:38:40.157Z,1008.80
2018-04-27T02:39:40.137Z,1008.82
2018-04-27T02:40:40.113Z,1008.84
2018-04-27T02:41:40.101Z,1008.81
2018-04-27T02:42:40.077Z,1008.78
2018-04-27T02:43:40.061Z,1008.80
2018-04-27T02:44:40.038Z,1008.81
2018-04-27T02:45:40.018Z,1008.83
2018-04-27T02:46:40.003Z,1008.81
2018-04-27T02:47:39.985Z,1008.81
2018-04-27T02:48:39.967Z,1008.80
2018-04-27T02:49:39.949Z,1008.82
2018-04-27T02:50:39.930Z,1008.75
2018-04-27T02:51:39.917Z,1008.75
2018-04-27T02:52:39.905Z,1008.75
2018-04-27T02:53:39.885Z,1008.79
2018-04-27T02:54:39.856Z,1008.76
2018-04-27T02:55:39.839Z,1008.79
2018-04-27T02:56:39.821Z,1008.75
2018-04-27T02:57:39.799Z,1008.78
2018-04-27T02:58:39.785Z,1008.81
2018-04-27T02:59:39.762Z,1008.81
2018-04-27T03:00:39.751Z,1008.80
2018-04-27T03:01:39.731Z,1008.78
2018-04-27T03:02:39.708Z,1008.80
2018-04-27T03:03:39.689Z,1008.80
2018-04-27T03:04:39.677Z,1008.80
2018-04-27T03:05:39.658Z,1008.81
2018-04-27T03:06:39.638Z,1008.80
2018-04-27T03:07:39.618Z,1008.77
2018-04-27T03:08:39.599Z,1008.76
2018-04-27T03:09:39.579Z,1008.76
2018-04-27T03:10:39.562Z,1008.71
2018-04-27T03:11:39.542Z,1008.70
2018-04-27T03:12:39.530Z,1008.74
2018-04-27T03:13:39.509Z,1008.73
2018-04-27T03:14:39.491Z,1008.75
2018-04-27T03:15:39.468Z,1008.75
2018-04-27T03:16:39.449Z,1008.72
2018-04-27T03:17:39.438Z,1008.72
2018-04-27T03:18:39.416Z,1008.69
2018-04-27T03:19:39.463Z,1008.69
2018-04-27T03:20:39.379Z,1008.69
2018-04-27T03:21:39.356Z,1008.67
2018-04-27T03:22:39.336Z,1008.64
2018-04-27T03:23:39.321Z,1008.65
2018-04-27T03:24:39.299Z,1008.63
2018-04-27T03:25:39.289Z,1008.57
2018-04-27T03:26:39.270Z,1008.61
2018-04-27T03:27:39.249Z,1008.59
2018-04-27T03:28:39.229Z,1008.60
2018-04-27T03:29:39.210Z,1008.59
2018-04-27T03:30:39.191Z,1008.61
2018-04-27T03:31:39.174Z,1008.60
2018-04-27T03:32:39.154Z,1008.59
2018-04-27T03:33:39.134Z,1008.59
2018-04-27T03:34:39.119Z,1008.58
2018-04-27T03:35:39.100Z,1008.58
2018-04-27T03:36:39.081Z,1008.58
2018-04-27T03:37:39.059Z,1008.58
2018-04-27T03:38:39.041Z,1008.56
2018-04-27T03:39:39.023Z,1008.56
2018-04-27T03:40:39.007Z,1008.55
2018-04-27T03:41:38.993Z,1008.54
2018-04-27T03:42:38.974Z,1008.56
2018-04-27T03:43:38.960Z,1008.55
2018-04-27T03:44:38.931Z,1008.52
2018-04-27T03:45:38.921Z,1008.51
2018-04-27T03:46:38.901Z,1008.49
2018-04-27T03:47:38.879Z,1008.50
2018-04-27T03:48:38.859Z,1008.52
2018-04-27T03:49:38.838Z,1008.51
2018-04-27T03:50:38.820Z,1008.52
2018-04-27T03:51:38.807Z,1008.55
2018-04-27T03:52:38.785Z,1008.50
2018-04-27T03:53:38.771Z,1008.49
2018-04-27T03:54:38.744Z,1008.51
2018-04-27T03:55:38.729Z,1008.52
2018-04-27T03:56:38.713Z,1008.52
2018-04-27T03:57:38.694Z,1008.49
2018-04-27T03:58:38.673Z,1008.50
2018-04-27T03:59:38.658Z,1008.49
2018-04-27T04:00:38.635Z,1008.45
2018-04-27T04:01:38.619Z,1008.47
2018-04-27T04:02:38.598Z,1008.47
2018-04-27T04:03:38.583Z,1008.52
2018-04-27T04:04:38.560Z,1008.47
2018-04-27T04:05:38.541Z,1008.49
2018-04-27T04:06:38.527Z,1008.46
2018-04-27T04:07:38.509Z,1008.46
2018-04-27T04:08:38.489Z,1008.44
2018-04-27T04:09:38.469Z,1008.42
2018-04-27T04:10:38.457Z,1008.42
2018-04-27T04:11:38.432Z,1008.43
2018-04-27T04:12:38.417Z,1008.39
2018-04-27T04:13:38.395Z,1008.41
2018-04-27T04:14:38.463Z,1008.37
2018-04-27T04:15:38.354Z,1008.37
2018-04-27T04:16:38.337Z,1008.41
2018-04-27T04:17:38.319Z,1008.42
2018-04-27T04:18:38.300Z,1008.39
2018-04-27T04:19:38.290Z,1008.41
2018-04-27T04:20:38.263Z,1008.41
2018-04-27T04:21:38.245Z,1008.38
2018-04-27T04:22:38.231Z,1008.37
2018-04-27T04:23:38.212Z,1008.40
2018-04-27T04:24:38.190Z,1008.37
2018-04-27T04:25:38.169Z,1008.36
2018-04-27T04:26:38.151Z,1008.38
2018-04-27T04:27:38.141Z,1008.36
2018-04-27T04:28:38.121Z,1008.37
2018-04-27T04:29:38.099Z,1008.36
2018-04-27T04:30:38.078Z,1008.34
2018-04-27T04:31:38.058Z,1008.33
2018-04-27T04:32:38.039Z,1008.39
2018-04-27T04:33:38.019Z,1008.39
2018-04-27T04:34:38.009Z,1008.41
2018-04-27T04:35:37.986Z,1008.41
2018-04-27T04:36:37.969Z,1008.36
2018-04-27T04:37:37.948Z,1008.36
2018-04-27T04:38:37.930Z,1008.33
2018-04-27T04:39:37.907Z,1008.36
2018-04-27T04:40:37.896Z,1008.36
2018-04-27T04:41:37.870Z,1008.40
2018-04-27T04:42:37.852Z,1008.44
2018-04-27T04:43:37.834Z,1008.42
2018-04-27T04:44:37.819Z,1008.42
2018-04-27T04:45:37.797Z,1008.47
2018-04-27T04:46:37.927Z,1008.45
2018-04-27T04:47:37.758Z,1008.44
2018-04-27T04:48:37.742Z,1008.46
2018-04-27T04:49:37.722Z,1008.44
2018-04-27T04:50:37.717Z,1008.45
2018-04-27T04:51:37.690Z,1008.46
2018-04-27T04:52:37.709Z,1008.45
2018-04-27T04:53:37.648Z,1008.46
2018-04-27T04:54:37.629Z,1008.44
2018-04-27T04:55:37.610Z,1008.45
2018-04-27T04:56:37.599Z,1008.43
2018-04-27T04:57:37.580Z,1008.43
2018-04-27T04:58:37.561Z,1008.42
2018-04-27T04:59:37.533Z,1008.47
2018-04-27T05:00:37.520Z,1008.48
2018-04-27T05:01:37.495Z,1008.46
2018-04-27T05:02:37.481Z,1008.46
2018-04-27T05:03:37.459Z,1008.47
2018-04-27T05:04:37.532Z,1008.44
2018-04-27T05:05:37.431Z,1008.48
2018-04-27T05:06:37.418Z,1008.46
2018-04-27T05:07:37.389Z,1008.47
2018-04-27T05:08:37.369Z,1008.44
2018-04-27T05:09:37.345Z,1008.43
2018-04-27T05:10:37.379Z,1008.47
2018-04-27T05:11:37.312Z,1008.48
2018-04-27T05:12:37.289Z,1008.49
2018-04-27T05:13:37.280Z,1008.42
2018-04-27T05:14:37.279Z,1008.45
2018-04-27T05:15:37.242Z,1008.40
2018-04-27T05:16:37.217Z,1008.41
2018-04-27T05:17:37.196Z,1008.43
2018-04-27T05:18:37.179Z,1008.44
2018-04-27T05:19:37.160Z,1008.42
2018-04-27T05:20:37.139Z,1008.40
2018-04-27T05:21:37.119Z,1008.41
2018-04-27T05:22:37.099Z,1008.38
2018-04-27T05:23:37.082Z,1008.35
2018-04-27T05:24:37.062Z,1008.30
2018-04-27T05:25:37.044Z,1008.29
2018-04-27T05:26:37.027Z,1008.29
2018-04-27T05:27:37.011Z,1008.30
2018-04-27T05:28:36.991Z,1008.25
2018-04-27T05:29:36.987Z,1008.23
2018-04-27T05:30:36.952Z,1008.19
2018-04-27T05:31:36.994Z,1008.17
2018-04-27T05:32:36.919Z,1008.18
2018-04-27T05:33:36.892Z,1008.17
2018-04-27T05:34:36.880Z,1008.16
2018-04-27T05:35:36.856Z,1008.16
2018-04-27T05:36:36.849Z,1008.17
2018-04-27T05:37:36.819Z,1008.16
2018-04-27T05:38:36.799Z,1008.19
2018-04-27T05:39:36.780Z,1008.18
2018-04-27T05:40:36.789Z,1008.20
2018-04-27T05:41:36.753Z,1008.17
2018-04-27T05:42:36.729Z,1008.19
2018-04-27T05:43:36.711Z,1008.18
2018-04-27T05:44:36.688Z,1008.19
2018-04-27T05:45:36.668Z,1008.16
2018-04-27T05:46:36.660Z,1008.18
2018-04-27T05:47:36.634Z,1008.18
2018-04-27T05:48:36.612Z,1008.17
2018-04-27T05:49:36.599Z,1008.19
2018-04-27T05:50:36.577Z,1008.14
2018-04-27T05:51:36.559Z,1008.13
2018-04-27T05:52:36.540Z,1008.13
2018-04-27T05:53:36.520Z,1008.13
2018-04-27T05:54:36.510Z,1008.16
2018-04-27T05:55:36.570Z,1008.14
2018-04-27T05:56:36.470Z,1008.13
2018-04-27T05:57:36.450Z,1008.12
2018-04-27T05:58:36.435Z,1008.10
2018-04-27T05:59:36.420Z,1008.13
2018-04-27T06:00:36.400Z,1008.13
2018-04-27T06:01:36.375Z,1008.10
2018-04-27T06:02:36.359Z,1008.15
2018-04-27T06:03:36.340Z,1008.15
2018-04-27T06:04:36.483Z,1008.12
2018-04-27T06:05:36.304Z,1008.13
2018-04-27T06:06:36.286Z,1008.13
2018-04-27T06:07:36.271Z,1008.12
2018-04-27T06:08:36.252Z,1008.13
2018-04-27T06:09:36.230Z,1008.12
2018-04-27T06:10:36.369Z,1008.04
2018-04-27T06:11:36.209Z,1008.06
2018-04-27T06:12:36.177Z,1008.06
2018-04-27T06:13:36.161Z,1008.09
2018-04-27T06:14:36.195Z,1008.10
2018-04-27T06:15:36.121Z,1008.07
2018-04-27T06:16:36.101Z,1008.08
2018-04-27T06:17:36.094Z,1008.08
2018-04-27T06:18:36.069Z,1008.08
2018-04-27T06:19:36.050Z,1008.07
2018-04-27T06:20:36.036Z,1008.05
2018-04-27T06:21:36.019Z,1008.05
2018-04-27T06:22:36.050Z,1008.06
2018-04-27T06:23:35.986Z,1008.03
2018-04-27T06:24:36.070Z,1008.04
2018-04-27T06:25:35.941Z,1008.06
2018-04-27T06:26:36.078Z,1008.02
2018-04-27T06:27:35.911Z,1008.03
2018-04-27T06:28:35.954Z,1008.03
2018-04-27T06:29:35.876Z,1007.97
2018-04-27T06:30:36.008Z,1007.99
2018-04-27T06:31:35.840Z,1007.97
2018-04-27T06:32:35.829Z,1007.97
2018-04-27T06:33:35.806Z,1007.92
2018-04-27T06:34:35.828Z,1007.88
2018-04-27T06:35:35.770Z,1007.89
2018-04-27T06:36:35.757Z,1007.86
2018-04-27T06:37:35.732Z,1007.86
2018-04-27T06:38:35.718Z,1007.87
2018-04-27T06:39:35.700Z,1007.87
2018-04-27T06:40:35.685Z,1007.90
2018-04-27T06:41:35.666Z,1007.88
2018-04-27T06:42:35.650Z,1007.85
2018-04-27T06:43:35.629Z,1007.85
2018-04-27T06:44:35.614Z,1007.87
2018-04-27T06:45:35.607Z,1007.89
2018-04-27T06:46:35.578Z,1007.82
2018-04-27T06:47:35.563Z,1007.87
2018-04-27T06:48:35.546Z,1007.88
2018-04-27T06:49:35.530Z,1007.87
2018-04-27T06:50:35.520Z,1007.86
2018-04-27T06:51:35.552Z,1007.86
2018-04-27T06:52:35.481Z,1007.89
2018-04-27T06:53:35.459Z,1007.87
2018-04-27T06:54:35.452Z,1007.92
2018-04-27T06:55:35.424Z,1007.89
2018-04-27T06:56:35.412Z,1007.89
2018-04-27T06:57:35.389Z,1007.87
2018-04-27T06:58:35.381Z,1007.84
2018-04-27T06:59:35.356Z,1007.87
2018-04-27T07:00:35.341Z,1007.88
2018-04-27T07:01:35.326Z,1007.84
2018-04-27T07:02:35.320Z,1007.85
2018-04-27T07:03:35.293Z,1007.85
2018-04-27T07:04:35.279Z,1007.88
2018-04-27T07:05:35.260Z,1007.88
2018-04-27T07:06:35.250Z,1007.94
2018-04-27T07:07:35.230Z,1007.93
2018-04-27T07:08:35.207Z,1007.91
2018-04-27T07:09:35.207Z,1007.92
2018-04-27T07:10:35.178Z,1007.95
2018-04-27T07:11:35.278Z,1007.86
2018-04-27T07:12:35.152Z,1007.89
2018-04-27T07:13:35.139Z,1007.91
2018-04-27T07:14:35.118Z,1007.99
2018-04-27T07:15:35.114Z,1008.09
2018-04-27T07:16:35.099Z,1008.14
2018-04-27T07:17:35.079Z,1008.17
2018-04-27T07:18:35.082Z,1008.27
2018-04-27T07:19:35.061Z,1008.21
2018-04-27T07:20:35.037Z,1008.18
2018-04-27T07:21:35.031Z,1008.21
2018-04-27T07:22:35.016Z,1008.23
2018-04-27T07:23:35.044Z,1008.31
2018-04-27T07:24:34.992Z,1008.37
2018-04-27T07:25:34.978Z,1008.16
2018-04-27T07:26:34.972Z,1008.43
2018-04-27T07:27:34.961Z,1008.46
2018-04-27T07:28:34.947Z,1008.43
2018-04-27T07:29:34.934Z,1008.47
2018-04-27T07:30:34.925Z,1008.40
2018-04-27T07:31:34.923Z,1008.26
2018-04-27T07:32:34.909Z,1008.27
2018-04-27T07:33:34.899Z,1008.41
2018-04-27T07:34:34.888Z,1008.51
2018-04-27T07:35:34.879Z,1008.53
2018-04-27T07:36:34.873Z,1008.49
2018-04-27T07:37:34.872Z,1008.53
2018-04-27T07:38:34.852Z,1008.50
2018-04-27T07:39:34.859Z,1008.46
2018-04-27T07:40:34.838Z,1008.61
2018-04-27T07:41:34.828Z,1008.56
2018-04-27T07:42:34.825Z,1008.55
2018-04-27T07:43:34.818Z,1008.63
2018-04-27T07:44:34.814Z,1008.61
2018-04-27T07:45:34.808Z,1008.55
2018-04-27T07:46:34.806Z,1008.55
2018-04-27T07:47:34.793Z,1008.53
2018-04-27T07:48:34.788Z,1008.55
2018-04-27T07:49:34.868Z,1008.59
2018-04-27T07:50:34.778Z,1008.56
2018-04-27T07:51:34.837Z,1008.57
2018-04-27T07:52:34.771Z,1008.44
2018-04-27T07:53:34.868Z,1008.47
2018-04-27T07:54:34.764Z,1008.48
2018-04-27T07:55:34.857Z,1008.47
2018-04-27T07:56:34.757Z,1008.47
2018-04-27T07:57:34.762Z,1008.52
2018-04-27T07:58:34.744Z,1008.40
2018-04-27T07:59:34.748Z,1008.38
2018-04-27T08:00:34.741Z,1008.34
2018-04-27T08:01:34.734Z,1008.37
2018-04-27T08:02:34.728Z,1008.47
2018-04-27T08:03:34.732Z,1008.32
2018-04-27T08:04:34.723Z,1008.40
2018-04-27T08:05:34.718Z,1008.40
2018-04-27T08:06:34.714Z,1008.41
2018-04-27T08:07:34.708Z,1008.37
2018-04-27T08:08:34.705Z,1008.35
2018-04-27T08:09:34.699Z,1008.32
2018-04-27T08:10:34.690Z,1008.30
2018-04-27T08:11:34.687Z,1008.32
2018-04-27T08:12:34.692Z,1008.32
2018-04-27T08:13:34.678Z,1008.28
2018-04-27T08:14:34.676Z,1008.23
2018-04-27T08:15:34.666Z,1008.26
2018-04-27T08:16:34.666Z,1008.28
2018-04-27T08:17:34.658Z,1008.21
2018-04-27T08:18:34.739Z,1008.26
2018-04-27T08:19:34.646Z,1008.22
2018-04-27T08:20:34.642Z,1008.17
2018-04-27T08:21:34.641Z,1008.15
2018-04-27T08:22:34.636Z,1008.23
2018-04-27T08:23:34.628Z,1008.21
2018-04-27T08:24:34.647Z,1008.19
2018-04-27T08:25:34.612Z,1008.21
2018-04-27T08:26:34.678Z,1008.13
2018-04-27T08:27:34.606Z,1008.07
2018-04-27T08:28:34.648Z,1008.02
2018-04-27T08:29:34.588Z,1008.06
2018-04-27T08:30:34.638Z,1008.02
2018-04-27T08:31:34.574Z,1007.96
2018-04-27T08:32:34.571Z,1007.94
2018-04-27T08:33:34.559Z,1007.96
2018-04-27T08:34:34.558Z,1007.92
2018-04-27T08:35:34.546Z,1007.92
2018-04-27T08:36:34.545Z,1007.89
2018-04-27T08:37:34.536Z,1007.85
2018-04-27T08:38:34.523Z,1007.85
2018-04-27T08:39:34.518Z,1007.85
2018-04-27T08:40:34.508Z,1007.74
2018-04-27T08:41:34.497Z,1007.77
2018-04-27T08:42:34.497Z,1007.73
2018-04-27T08:43:34.483Z,1007.66
2018-04-27T08:44:34.479Z,1007.66
2018-04-27T08:45:34.467Z,1007.61
2018-04-27T08:46:34.468Z,1007.59
2018-04-27T08:47:34.459Z,1007.59
2018-04-27T08:48:34.437Z,1007.55
2018-04-27T08:49:34.426Z,1007.55
2018-04-27T08:50:34.426Z,1007.60
2018-04-27T08:51:34.409Z,1007.58
2018-04-27T08:52:34.398Z,1007.61
2018-04-27T08:53:34.386Z,1007.61
2018-04-27T08:54:34.379Z,1007.55
2018-04-27T08:55:34.371Z,1007.54
2018-04-27T08:56:34.359Z,1007.54
2018-04-27T08:57:34.349Z,1007.50
2018-04-27T08:58:34.338Z,1007.50
2018-04-27T08:59:34.325Z,1007.52
2018-04-27T09:00:34.320Z,1007.51
2018-04-27T09:01:34.305Z,1007.54
2018-04-27T09:02:34.300Z,1007.51
2018-04-27T09:03:34.289Z,1007.53
2018-04-27T09:04:34.275Z,1007.54
2018-04-27T09:05:34.260Z,1007.55
2018-04-27T09:06:34.250Z,1007.55
2018-04-27T09:07:34.240Z,1007.51
2018-04-27T09:08:34.230Z,1007.52
2018-04-27T09:09:34.218Z,1007.55
2018-04-27T09:10:34.209Z,1007.54
2018-04-27T09:11:34.198Z,1007.58
2018-04-27T09:12:34.187Z,1007.57
2018-04-27T09:13:34.219Z,1007.56
2018-04-27T09:14:34.160Z,1007.59
2018-04-27T09:15:34.149Z,1007.57
2018-04-27T09:16:34.141Z,1007.54
2018-04-27T09:17:34.123Z,1007.54
2018-04-27T09:18:34.118Z,1007.56
2018-04-27T09:19:34.102Z,1007.52
2018-04-27T09:20:34.100Z,1007.58
2018-04-27T09:21:34.095Z,1007.55
2018-04-27T09:22:34.072Z,1007.60
2018-04-27T09:23:34.057Z,1007.51
2018-04-27T09:24:34.053Z,1007.55
2018-04-27T09:25:34.038Z,1007.50
2018-04-27T09:26:34.035Z,1007.48
2018-04-27T09:27:34.021Z,1007.49
2018-04-27T09:28:34.011Z,1007.52
2018-04-27T09:29:33.993Z,1007.53
2018-04-27T09:30:33.983Z,1007.58
2018-04-27T09:31:33.974Z,1007.58
2018-04-27T09:32:33.959Z,1007.61
2018-04-27T09:33:33.956Z,1007.60
2018-04-27T09:34:33.944Z,1007.61
2018-04-27T09:35:33.929Z,1007.52
2018-04-27T09:36:33.937Z,1007.52
2018-04-27T09:37:33.916Z,1007.52
2018-04-27T09:38:33.899Z,1007.50
2018-04-27T09:39:33.895Z,1007.45
2018-04-27T09:40:33.880Z,1007.43
2018-04-27T09:41:33.869Z,1007.48
2018-04-27T09:42:33.864Z,1007.50
2018-04-27T09:43:33.849Z,1007.45
2018-04-27T09:44:33.835Z,1007.47
2018-04-27T09:45:33.822Z,1007.44
2018-04-27T09:46:33.827Z,1007.34
2018-04-27T09:47:33.801Z,1007.33
2018-04-27T09:48:33.794Z,1007.33
2018-04-27T09:49:33.786Z,1007.29
2018-04-27T09:50:33.782Z,1007.27
2018-04-27T09:51:33.763Z,1007.25
2018-04-27T09:52:33.753Z,1007.22
2018-04-27T09:53:33.740Z,1007.24
2018-04-27T09:54:33.731Z,1007.16
2018-04-27T09:55:33.731Z,1007.14
2018-04-27T09:56:33.711Z,1007.15
2018-04-27T09:57:33.744Z,1007.14
2018-04-27T09:58:33.686Z,1007.14
2018-04-27T09:59:33.677Z,1007.12
2018-04-27T10:00:33.673Z,1007.12
2018-04-27T10:01:33.660Z,1007.12
2018-04-27T10:02:33.660Z,1007.06
2018-04-27T10:03:33.638Z,1007.03
2018-04-27T10:04:33.628Z,1006.99
2018-04-27T10:05:33.613Z,1007.00
2018-04-27T10:06:33.609Z,1006.93
2018-04-27T10:07:33.609Z,1006.94
2018-04-27T10:08:33.583Z,1006.89
2018-04-27T10:09:33.579Z,1006.90
2018-04-27T10:10:33.567Z,1006.89
2018-04-27T10:11:33.550Z,1006.87
2018-04-27T10:12:33.623Z,1006.90
2018-04-27T10:13:33.538Z,1006.87
2018-04-27T10:14:33.617Z,1006.91
2018-04-27T10:15:33.511Z,1006.89
2018-04-27T10:16:33.598Z,1006.88
2018-04-27T10:17:33.494Z,1006.89
2018-04-27T10:18:33.537Z,1006.87
2018-04-27T10:19:33.470Z,1006.87
2018-04-27T10:20:33.503Z,1006.87
2018-04-27T10:21:33.495Z,1006.88
2018-04-27T10:22:33.490Z,1006.87
2018-04-27T10:23:33.432Z,1006.80
2018-04-27T10:24:33.421Z,1006.78
2018-04-27T10:25:33.415Z,1006.74
2018-04-27T10:26:33.395Z,1006.78
2018-04-27T10:27:33.390Z,1006.82
2018-04-27T10:28:33.377Z,1006.83
2018-04-27T10:29:33.386Z,1006.81
2018-04-27T10:30:33.357Z,1006.83
2018-04-27T10:31:33.352Z,1006.85
2018-04-27T10:32:33.341Z,1006.84
2018-04-27T10:33:33.330Z,1006.82
2018-04-27T10:34:33.316Z,1006.78
2018-04-27T10:35:33.308Z,1006.77
2018-04-27T10:36:33.301Z,1006.77
2018-04-27T10:37:33.288Z,1006.76
2018-04-27T10:38:33.282Z,1006.74
2018-04-27T10:39:33.271Z,1006.74
2018-04-27T10:40:33.272Z,1006.65
2018-04-27T10:41:33.251Z,1006.61
2018-04-27T10:42:33.237Z,1006.59
2018-04-27T10:43:33.229Z,1006.54
2018-04-27T10:44:33.211Z,1006.51
2018-04-27T10:45:33.200Z,1006.44
2018-04-27T10:46:33.201Z,1006.42
2018-04-27T10:47:33.185Z,1006.43
2018-04-27T10:48:33.176Z,1006.42
2018-04-27T10:49:33.167Z,1006.40
2018-04-27T10:50:33.157Z,1006.38
2018-04-27T10:51:33.147Z,1006.36
2018-04-27T10:52:33.134Z,1006.34
2018-04-27T10:53:33.127Z,1006.30
2018-04-27T10:54:33.114Z,1006.28
2018-04-27T10:55:33.103Z,1006.28
2018-04-27T10:56:33.097Z,1006.28
2018-04-27T10:57:33.080Z,1006.29
2018-04-27T10:58:33.068Z,1006.26
2018-04-27T10:59:33.072Z,1006.31
2018-04-27T11:00:33.050Z,1006.27
2018-04-27T11:01:33.039Z,1006.26
2018-04-27T11:02:33.029Z,1006.19
2018-04-27T11:03:33.017Z,1006.14
2018-04-27T11:04:33.009Z,1006.14
2018-04-27T11:05:33.000Z,1006.10
2018-04-27T11:06:32.985Z,1006.10
2018-04-27T11:07:32.978Z,1006.07
2018-04-27T11:08:32.968Z,1006.08
2018-04-27T11:09:32.961Z,1006.06
2018-04-27T11:10:32.950Z,1006.03
2018-04-27T11:11:32.940Z,1006.05
2018-04-27T11:12:32.925Z,1006.06
2018-04-27T11:13:32.921Z,1006.00
2018-04-27T11:14:32.901Z,1006.00
2018-04-27T11:15:32.890Z,1005.95
2018-04-27T11:16:32.881Z,1005.88
2018-04-27T11:17:32.881Z,1005.92
2018-04-27T11:18:32.863Z,1005.91
2018-04-27T11:19:32.850Z,1005.91
2018-04-27T11:20:32.832Z,1005.94
2018-04-27T11:21:32.833Z,1005.90
2018-04-27T11:22:32.820Z,1005.86
2018-04-27T11:23:32.804Z,1005.85
2018-04-27T11:24:32.797Z,1005.80
2018-04-27T11:25:32.780Z,1005.79
2018-04-27T11:26:32.778Z,1005.81
2018-04-27T11:27:32.760Z,1005.81
2018-04-27T11:28:32.753Z,1005.79
2018-04-27T11:29:32.733Z,1005.79
2018-04-27T11:30:32.724Z,1005.81
2018-04-27T11:31:32.713Z,1005.80
2018-04-27T11:32:32.715Z,1005.79
2018-04-27T11:33:32.692Z,1005.73
2018-04-27T11:34:32.676Z,1005.73
2018-04-27T11:35:32.670Z,1005.69
2018-04-27T11:36:32.662Z,1005.62
2018-04-27T11:37:32.644Z,1005.56
2018-04-27T11:38:32.641Z,1005.60
2018-04-27T11:39:32.628Z,1005.59
2018-04-27T11:40:32.608Z,1005.65
2018-04-27T11:41:32.603Z,1005.62
2018-04-27T11:42:32.591Z,1005.65
2018-04-27T11:43:32.587Z,1005.67
2018-04-27T11:44:32.569Z,1005.72
2018-04-27T11:45:32.562Z,1005.71
2018-04-27T11:46:32.555Z,1005.70
2018-04-27T11:47:32.536Z,1005.68
2018-04-27T11:48:32.532Z,1005.71
2018-04-27T11:49:32.529Z,1005.64
2018-04-27T11:50:32.514Z,1005.64
2018-04-27T11:51:32.501Z,1005.70
2018-04-27T11:52:32.492Z,1005.68
2018-04-27T11:53:32.480Z,1005.62
2018-04-27T11:54:32.461Z,1005.49
2018-04-27T11:55:32.449Z,1005.51
2018-04-27T11:56:32.449Z,1005.40
2018-04-27T11:57:32.428Z,1005.38
2018-04-27T11:58:32.427Z,1005.35
2018-04-27T11:59:32.418Z,1005.35
2018-04-27T12:00:32.400Z,1005.44
2018-04-27T12:01:32.394Z,1005.44
2018-04-27T12:02:32.377Z,1005.40
2018-04-27T12:03:32.369Z,1005.40
2018-04-27T12:04:32.460Z,1005.42
2018-04-27T12:05:32.358Z,1005.37
2018-04-27T12:06:32.348Z,1005.34